Map

Track Data

SID SEASON NUMBER BASIN SUBBASIN NAME ISO_TIME NATURE LAT LON WMO_WIND WMO_PRES WMO_AGENCY TRACK_TYPE DIST2LAND LANDFALL IFLAG USA_AGENCY USA_ATCF_ID USA_LAT USA_LON USA_RECORD USA_STATUS USA_WIND USA_PRES USA_SSHS USA_R34_NE USA_R34_SE USA_R34_SW USA_R34_NW USA_R50_NE USA_R50_SE USA_R50_SW USA_R50_NW USA_R64_NE USA_R64_SE USA_R64_SW USA_R64_NW USA_POCI USA_ROCI USA_RMW USA_EYE TOKYO_LAT TOKYO_LON TOKYO_GRADE TOKYO_WIND TOKYO_PRES TOKYO_R50_DIR TOKYO_R50_LONG TOKYO_R50_SHORT TOKYO_R30_DIR TOKYO_R30_LONG TOKYO_R30_SHORT TOKYO_LAND CMA_LAT CMA_LON CMA_CAT CMA_WIND CMA_PRES HKO_LAT HKO_LON HKO_CAT HKO_WIND HKO_PRES NEWDELHI_LAT NEWDELHI_LON NEWDELHI_GRADE NEWDELHI_WIND NEWDELHI_PRES NEWDELHI_CI NEWDELHI_DP NEWDELHI_POCI REUNION_LAT REUNION_LON REUNION_TYPE REUNION_WIND REUNION_PRES REUNION_TNUM REUNION_CI REUNION_RMW REUNION_R34_NE REUNION_R34_SE REUNION_R34_SW REUNION_R34_NW REUNION_R50_NE REUNION_R50_SE REUNION_R50_SW REUNION_R50_NW REUNION_R64_NE REUNION_R64_SE REUNION_R64_SW REUNION_R64_NW BOM_LAT BOM_LON BOM_TYPE BOM_WIND BOM_PRES BOM_TNUM BOM_CI BOM_RMW BOM_R34_NE BOM_R34_SE BOM_R34_SW BOM_R34_NW BOM_R50_NE BOM_R50_SE BOM_R50_SW BOM_R50_NW BOM_R64_NE BOM_R64_SE BOM_R64_SW BOM_R64_NW BOM_ROCI BOM_POCI BOM_EYE BOM_POS_METHOD BOM_PRES_METHOD NADI_LAT NADI_LON NADI_CAT NADI_WIND NADI_PRES WELLINGTON_LAT WELLINGTON_LON WELLINGTON_WIND WELLINGTON_PRES DS824_LAT DS824_LON DS824_STAGE DS824_WIND DS824_PRES TD9636_LAT TD9636_LON TD9636_STAGE TD9636_WIND TD9636_PRES TD9635_LAT TD9635_LON TD9635_WIND TD9635_PRES TD9635_ROCI NEUMANN_LAT NEUMANN_LON NEUMANN_CLASS NEUMANN_WIND NEUMANN_PRES MLC_LAT MLC_LON MLC_CLASS MLC_WIND MLC_PRES USA_GUST BOM_GUST BOM_GUST_PER REUNION_GUST REUNION_GUST_PER USA_SEAHGT USA_SEARAD_NE USA_SEARAD_SE USA_SEARAD_SW USA_SEARAD_NW STORM_SPEED STORM_DIR
1851080S15062 1851 1 SI MM NOT_NAMED 1851-03-20 18:00:00 NR -15.0000 62.4000 main 757 712 __________O___ -1 -15.0000 62.4000 7 8 239
1851080S15062 1851 1 SI MM NOT_NAMED 1851-03-20 21:00:00 NR -15.2178 62.0273 main 712 675 __________P___ -1 -15.2178 62.0273 7 8 239
1851080S15062 1851 1 SI MM NOT_NAMED 1851-03-21 00:00:00 NR -15.4281 61.6633 main 675 631 __________P___ -1 -15.4281 61.6633 7 8 239
1851080S15062 1851 1 SI MM NOT_NAMED 1851-03-21 03:00:00 NR -15.6244 61.3176 main 631 594 __________P___ -1 -15.6244 61.3176 7 7 240
1851080S15062 1851 1 SI MM NOT_NAMED 1851-03-21 06:00:00 NR -15.8000 61.0000 main 594 566 __________O___ -1 -15.8000 61.0000 7 7 241
1851080S15062 1851 1 SI MM NOT_NAMED 1851-03-21 09:00:00 NR -15.9504 60.7169 main 557 536 __________P___ -1 -15.9504 60.7169 7 6 242
1851080S15062 1851 1 SI MM NOT_NAMED 1851-03-21 12:00:00 NR -16.0797 60.4622 main 536 510 __________P___ -1 -16.0797 60.4622 7 5 243
1851080S15062 1851 1 SI MM NOT_NAMED 1851-03-21 15:00:00 NR -16.1942 60.2263 main 510 489 __________P___ -1 -16.1942 60.2263 7 5 244
1851080S15062 1851 1 SI MM NOT_NAMED 1851-03-21 18:00:00 NR -16.3000 60.0000 main 489 469 __________O___ -1 -16.3000 60.0000 7 5 244
1851080S15062 1851 1 SI MM NOT_NAMED 1851-03-21 21:00:00 NR -16.4111 59.7718 main 469 449 __________P___ -1 -16.4111 59.7718 7 5 243
1851080S15062 1851 1 SI MM NOT_NAMED 1851-03-22 00:00:00 NR -16.5148 59.5499 main 445 426 __________P___ -1 -16.5148 59.5499 7 5 245
1851080S15062 1851 1 SI MM NOT_NAMED 1851-03-22 03:00:00 NR -16.6111 59.3280 main 426 408 __________P___ -1 -16.6111 59.3280 7 5 247
1851080S15062 1851 1 SI MM NOT_NAMED 1851-03-22 06:00:00 NR -16.7000 59.1000 main 408 390 __________O___ -1 -16.7000 59.1000 7 5 248
1851080S15062 1851 1 SI MM NOT_NAMED 1851-03-22 09:00:00 NR -16.7902 58.8612 main 390 370 __________P___ -1 -16.7902 58.8612 7 5 250
1851080S15062 1851 1 SI MM NOT_NAMED 1851-03-22 12:00:00 NR -16.8724 58.6150 main 370 365 __________P___ -1 -16.8724 58.6150 7 5 252
1851080S15062 1851 1 SI MM NOT_NAMED 1851-03-22 15:00:00 NR -16.9433 58.3613 main 365 349 __________P___ -1 -16.9433 58.3613 7 5 255
1851080S15062 1851 1 SI MM NOT_NAMED 1851-03-22 18:00:00 NR -17.0000 58.1000 main 349 346 __________O___ -1 -17.0000 58.1000 7 5 259
1851080S15062 1851 1 SI MM NOT_NAMED 1851-03-22 21:00:00 NR -17.0394 57.8240 main 346 335 __________P___ -1 -17.0394 57.8240 7 5 263
1851080S15062 1851 1 SI MM NOT_NAMED 1851-03-23 00:00:00 NR -17.0650 57.5424 main 335 335 __________P___ -1 -17.0650 57.5424 7 5 265
1851080S15062 1851 1 SI MM NOT_NAMED 1851-03-23 03:00:00 NR -17.0831 57.2646 main 336 336 __________P___ -1 -17.0831 57.2646 7 5 266
1851080S15062 1851 1 SI MM NOT_NAMED 1851-03-23 06:00:00 NR -17.1000 57.0000 main 339 339 __________O___ -1 -17.1000 57.0000 7 5 265
1851080S15062 1851 1 SI MM NOT_NAMED 1851-03-23 09:00:00 NR -17.1206 56.7808 main 343 343 __________P___ -1 -17.1206 56.7808 7 4 264
1851080S15062 1851 1 SI MM NOT_NAMED 1851-03-23 12:00:00 NR -17.1420 56.5723 main 348 341 __________P___ -1 -17.1420 56.5723 7 4 263
1851080S15062 1851 1 SI MM NOT_NAMED 1851-03-23 15:00:00 NR -17.1674 56.3527 main 344 344 __________P___ -1 -17.1674 56.3527 7 5 263
1851080S15062 1851 1 SI MM NOT_NAMED 1851-03-23 18:00:00 NR -17.2000 56.1000 main 356 356 __________O___ -1 -17.2000 56.1000 7 5 262
1851080S15062 1851 1 SI MM NOT_NAMED 1851-03-23 21:00:00 NR -17.2388 55.7859 main 370 366 __________P___ -1 -17.2388 55.7859 7 6 262
1851080S15062 1851 1 SI MM NOT_NAMED 1851-03-24 00:00:00 NR -17.2851 55.4374 main 383 383 __________P___ -1 -17.2851 55.4374 7 7 262
1851080S15062 1851 1 SI MM NOT_NAMED 1851-03-24 03:00:00 NR -17.3388 55.0702 main 402 400 __________P___ -1 -17.3388 55.0702 7 7 261
1851080S15062 1851 1 SI MM NOT_NAMED 1851-03-24 06:00:00 NR -17.4000 54.7000 main 407 402 __________O___ -1 -17.4000 54.7000 7 7 259
1851080S15062 1851 1 SI MM NOT_NAMED 1851-03-24 09:00:00 NR -17.4677 54.3459 main 405 405 __________P___ -1 -17.4677 54.3459 7 7 258
1851080S15062 1851 1 SI MM NOT_NAMED 1851-03-24 12:00:00 NR -17.5423 53.9925 main 414 404 __________P___ -1 -17.5423 53.9925 7 7 257
1851080S15062 1851 1 SI MM NOT_NAMED 1851-03-24 15:00:00 NR -17.6208 53.6428 main 403 380 __________P___ -1 -17.6208 53.6428 7 7 257
1851080S15062 1851 1 SI MM NOT_NAMED 1851-03-24 18:00:00 NR -17.7000 53.3000 main 380 357 __________O___ -1 -17.7000 53.3000 7 7 257
1851080S15062 1851 1 SI MM NOT_NAMED 1851-03-24 21:00:00 NR -17.7706 52.9758 main 357 327 __________P___ -1 -17.7706 52.9758 7 6 257
1851080S15062 1851 1 SI MM NOT_NAMED 1851-03-25 00:00:00 NR -17.8421 52.6572 main 327 302 __________P___ -1 -17.8421 52.6572 7 6 256
1851080S15062 1851 1 SI MM NOT_NAMED 1851-03-25 03:00:00 NR -17.9175 52.3351 main 292 266 __________P___ -1 -17.9175 52.3351 7 6 256
1851080S15062 1851 1 SI MM NOT_NAMED 1851-03-25 06:00:00 NR -18.0000 52.0000 main 266 237 __________O___ -1 -18.0000 52.0000 7 7 256
1851080S15062 1851 1 SI MM NOT_NAMED 1851-03-25 09:00:00 NR -18.0846 51.6392 main 226 198 __________P___ -1 -18.0846 51.6392 7 7 256
1851080S15062 1851 1 SI MM NOT_NAMED 1851-03-25 12:00:00 NR -18.1774 51.2648 main 198 158 __________P___ -1 -18.1774 51.2648 7 7 255
1851080S15062 1851 1 SI MM NOT_NAMED 1851-03-25 15:00:00 NR -18.2815 50.8829 main 158 118 __________P___ -1 -18.2815 50.8829 7 8 253
1851080S15062 1851 1 SI MM NOT_NAMED 1851-03-25 18:00:00 NR -18.4000 50.5000 main 118 81 __________O___ -1 -18.4000 50.5000 7 8 251
1851080S15062 1851 1 SI MM NOT_NAMED 1851-03-25 21:00:00 NR -18.5349 50.1210 main 81 57 __________P___ -1 -18.5349 50.1210 7 8 248
1851080S15062 1851 1 SI MM NOT_NAMED 1851-03-26 00:00:00 NR -18.6830 49.7457 main 52 23 __________P___ -1 -18.6830 49.7457 7 8 247
1851080S15062 1851 1 SI MM NOT_NAMED 1851-03-26 03:00:00 NR -18.8396 49.3725 main 23 0 __________P___ -1 -18.8396 49.3725 7 8 246
1851080S15062 1851 1 SI MM NOT_NAMED 1851-03-26 06:00:00 NR -19.0000 49.0000 main 0 __________O___ -1 -19.0000 49.0000 7 8 245

About IBTrACS Database

This database is a web-friendly format of International Best Track Archive for Climate Stewardship (IBTrACS), a global best track data archive curated by NOAA dating back to 1842.

Updated: 2021-10-21